createdAt,value
2018-09-22T00:01:11.422Z,25.16
2018-09-22T00:03:42.043Z,25.18
2018-09-22T00:06:12.397Z,25.10
2018-09-22T00:08:42.617Z,25.13
2018-09-22T00:11:13.413Z,25.05
2018-09-22T00:13:43.646Z,25.10
2018-09-22T00:16:13.989Z,25.15
2018-09-22T00:18:45.141Z,25.15
2018-09-22T00:21:15.284Z,25.13
2018-09-22T00:23:45.380Z,25.14
2018-09-22T00:26:15.655Z,25.15
2018-09-22T00:28:46.127Z,25.15
2018-09-22T00:31:16.593Z,25.17
2018-09-22T00:33:47.829Z,25.17
2018-09-22T00:36:17.983Z,25.18
2018-09-22T00:38:48.235Z,25.20
2018-09-22T00:41:18.489Z,25.19
2018-09-22T00:43:49.103Z,25.20
2018-09-22T00:46:19.536Z,25.20
2018-09-22T00:48:49.591Z,25.20
2018-09-22T00:51:19.983Z,25.25
2018-09-22T00:53:50.234Z,25.23
2018-09-22T00:56:20.601Z,25.22
2018-09-22T00:58:50.901Z,25.23
2018-09-22T01:01:21.423Z,25.24
2018-09-22T01:03:51.915Z,25.23
2018-09-22T01:06:22.282Z,25.24
2018-09-22T01:08:52.937Z,25.25
2018-09-22T01:11:23.279Z,25.23
2018-09-22T01:13:53.519Z,25.22
2018-09-22T01:16:23.733Z,25.23
2018-09-22T01:18:54.157Z,25.24
2018-09-22T01:21:24.303Z,25.25
2018-09-22T01:23:54.723Z,25.24
2018-09-22T01:26:25.190Z,25.24
2018-09-22T01:28:55.752Z,25.25
2018-09-22T01:31:26.009Z,25.22
2018-09-22T01:33:56.687Z,25.23
2018-09-22T01:37:02.481Z,25.20
2018-09-22T01:39:38.104Z,25.22
2018-09-22T01:42:08.551Z,25.23
2018-09-22T01:44:38.554Z,25.21
2018-09-22T01:47:08.695Z,25.21
2018-09-22T01:49:38.989Z,25.22
2018-09-22T01:52:09.179Z,25.20
2018-09-22T01:54:39.676Z,25.22
2018-09-22T01:57:10.092Z,25.21
2018-09-22T01:59:40.420Z,25.19
2018-09-22T02:02:10.868Z,25.21
2018-09-22T02:04:41.111Z,25.21
2018-09-22T02:07:11.297Z,25.22
2018-09-22T02:09:41.740Z,25.23
2018-09-22T02:12:12.042Z,25.19
2018-09-22T02:14:42.456Z,25.22
2018-09-22T02:17:12.700Z,25.22
2018-09-22T02:19:43.228Z,25.21
2018-09-22T02:22:13.436Z,25.22
2018-09-22T02:24:43.582Z,25.22
2018-09-22T02:27:13.610Z,25.19
2018-09-22T02:29:43.673Z,25.16
2018-09-22T02:32:13.748Z,25.19
2018-09-22T02:34:43.874Z,25.20
2018-09-22T02:37:13.884Z,25.16
2018-09-22T02:39:43.978Z,25.17
2018-09-22T02:42:14.032Z,25.18
2018-09-22T02:44:43.965Z,25.19
2018-09-22T02:47:14.069Z,25.19
2018-09-22T02:49:44.156Z,25.17
2018-09-22T02:52:14.337Z,25.19
2018-09-22T02:54:44.526Z,25.19
2018-09-22T02:57:16.122Z,25.18
2018-09-22T02:59:46.292Z,25.17
2018-09-22T03:02:16.673Z,25.17
2018-09-22T03:04:47.002Z,25.17
2018-09-22T03:07:17.092Z,25.18
2018-09-22T03:09:47.456Z,25.17
2018-09-22T03:12:17.554Z,25.17
2018-09-22T03:14:47.724Z,25.17
2018-09-22T03:17:17.874Z,25.15
2018-09-22T03:19:48.194Z,25.12
2018-09-22T03:22:18.297Z,25.16
2018-09-22T03:24:48.719Z,25.15
2018-09-22T03:27:18.883Z,25.16
2018-09-22T03:29:49.009Z,25.15
2018-09-22T03:32:19.349Z,25.15
2018-09-22T03:34:49.637Z,25.15
2018-09-22T03:37:19.901Z,25.13
2018-09-22T03:39:50.016Z,25.13
2018-09-22T03:42:20.088Z,25.09
2018-09-22T03:44:50.292Z,25.09
2018-09-22T03:47:20.597Z,25.12
2018-09-22T03:49:50.668Z,25.11
2018-09-22T03:52:20.891Z,25.09
2018-09-22T03:54:50.981Z,25.08
2018-09-22T03:57:21.615Z,25.08
2018-09-22T03:59:51.809Z,25.07
2018-09-22T04:02:21.857Z,25.07
2018-09-22T04:04:52.043Z,25.08
2018-09-22T04:07:22.278Z,25.07
2018-09-22T04:09:52.507Z,25.08
2018-09-22T04:12:22.540Z,25.06
2018-09-22T04:14:53.019Z,25.04
2018-09-22T04:17:23.494Z,25.05
2018-09-22T04:19:54.048Z,25.05
2018-09-22T04:22:24.501Z,25.07
2018-09-22T04:24:54.838Z,25.05
2018-09-22T04:27:24.982Z,25.06
2018-09-22T04:29:55.043Z,25.03
2018-09-22T04:32:25.395Z,25.04
2018-09-22T04:34:55.508Z,25.02
2018-09-22T04:37:25.919Z,25.02
2018-09-22T04:39:56.379Z,25.00
2018-09-22T04:42:30.223Z,24.99
2018-09-22T04:45:00.605Z,25.00
2018-09-22T04:47:30.881Z,24.99
2018-09-22T04:50:01.037Z,25.00
2018-09-22T04:52:31.670Z,24.97
2018-09-22T04:55:02.305Z,24.99
2018-09-22T04:57:32.485Z,24.98
2018-09-22T05:00:02.626Z,24.96
2018-09-22T05:02:32.899Z,24.94
2018-09-22T05:05:03.001Z,24.97
2018-09-22T05:07:33.632Z,24.95
2018-09-22T05:10:03.890Z,24.96
2018-09-22T05:12:34.040Z,24.95
2018-09-22T05:15:05.013Z,24.96
2018-09-22T05:17:35.195Z,24.94
2018-09-22T05:20:05.445Z,24.97
2018-09-22T05:22:35.588Z,25.00
2018-09-22T05:25:05.939Z,24.95
2018-09-22T05:27:36.381Z,24.94
2018-09-22T05:30:06.620Z,24.94
2018-09-22T05:32:40.659Z,24.95
2018-09-22T05:35:15.619Z,24.93
2018-09-22T05:37:45.565Z,24.94
2018-09-22T05:40:15.595Z,24.92
2018-09-22T05:42:45.950Z,24.92
2018-09-22T05:45:15.984Z,24.93
2018-09-22T05:47:45.977Z,24.92
2018-09-22T05:50:15.935Z,24.93
2018-09-22T05:52:46.558Z,24.92
2018-09-22T05:55:16.830Z,24.90
2018-09-22T05:57:46.851Z,24.95
2018-09-22T06:00:16.954Z,24.92
2018-09-22T06:02:47.120Z,24.85
2018-09-22T06:05:17.237Z,24.85
2018-09-22T06:07:48.777Z,24.87
2018-09-22T06:10:20.544Z,24.87
2018-09-22T06:12:52.261Z,24.86
2018-09-22T06:15:22.309Z,24.85
2018-09-22T06:17:54.158Z,24.86
2018-09-22T06:20:24.690Z,24.86
2018-09-22T06:22:54.702Z,24.87
2018-09-22T06:25:24.747Z,24.90
2018-09-22T06:27:55.022Z,24.88
2018-09-22T06:30:24.996Z,24.86
2018-09-22T06:32:55.000Z,24.84
2018-09-22T06:35:25.218Z,24.84
2018-09-22T06:37:56.538Z,24.84
2018-09-22T06:40:26.870Z,24.79
2018-09-22T06:42:57.059Z,24.81
2018-09-22T06:45:27.199Z,24.76
2018-09-22T06:47:57.583Z,24.79
2018-09-22T06:50:28.630Z,24.73
2018-09-22T06:52:58.796Z,24.85
2018-09-22T06:55:28.777Z,24.63
2018-09-22T06:57:58.793Z,24.52
2018-09-22T07:00:28.880Z,24.57
2018-09-22T07:02:58.994Z,24.45
2018-09-22T07:05:29.190Z,24.40
2018-09-22T07:07:59.261Z,24.33
2018-09-22T07:10:29.480Z,24.31
2018-09-22T07:12:59.600Z,24.27
2018-09-22T07:15:29.632Z,24.24
2018-09-22T07:17:59.633Z,24.28
2018-09-22T07:20:29.665Z,24.30
2018-09-22T07:23:05.105Z,24.32
2018-09-22T07:25:35.099Z,24.42
2018-09-22T07:28:05.170Z,24.39
2018-09-22T07:30:35.236Z,24.34
2018-09-22T07:33:05.334Z,24.28
2018-09-22T07:35:35.508Z,24.31
2018-09-22T07:38:05.948Z,24.22
2018-09-22T07:40:36.000Z,24.10
2018-09-22T07:43:06.083Z,24.02
2018-09-22T07:45:36.292Z,23.92
2018-09-22T07:48:06.326Z,23.86
2018-09-22T07:50:36.498Z,23.76
2018-09-22T07:53:06.438Z,23.70
2018-09-22T07:55:36.585Z,23.68
2018-09-22T07:58:06.944Z,23.77
2018-09-22T08:00:37.026Z,23.65
2018-09-22T08:03:07.265Z,23.63
2018-09-22T08:05:37.280Z,23.66
2018-09-22T08:08:07.408Z,23.55
2018-09-22T08:10:37.438Z,23.42
2018-09-22T08:13:08.052Z,23.42
2018-09-22T08:15:38.065Z,23.41
2018-09-22T08:18:08.394Z,23.37
2018-09-22T08:20:38.491Z,23.29
2018-09-22T08:23:08.549Z,23.16
2018-09-22T08:25:38.650Z,23.16
2018-09-22T08:28:08.887Z,23.21
2018-09-22T08:30:39.210Z,23.28
2018-09-22T08:33:09.669Z,23.02
2018-09-22T08:35:39.871Z,23.15
2018-09-22T08:38:10.100Z,23.18
2018-09-22T08:40:40.242Z,23.11
2018-09-22T08:43:11.790Z,23.19
2018-09-22T08:45:42.275Z,23.37
2018-09-22T08:48:13.354Z,23.40
2018-09-22T08:50:44.344Z,23.36
2018-09-22T08:53:15.356Z,23.23
2018-09-22T08:55:45.447Z,23.40
2018-09-22T08:58:16.855Z,23.41
2018-09-22T09:00:48.078Z,23.36
2018-09-22T09:03:18.621Z,23.16
2018-09-22T09:05:48.784Z,23.18
2018-09-22T09:08:19.835Z,23.07
2018-09-22T09:10:50.576Z,23.07
2018-09-22T09:13:21.490Z,23.08
2018-09-22T09:15:52.184Z,23.01
2018-09-22T09:18:23.797Z,23.11
2018-09-22T09:20:54.614Z,23.19
2018-09-22T09:23:25.847Z,23.25
2018-09-22T09:25:56.139Z,23.10
2018-09-22T09:28:26.209Z,23.15
2018-09-22T09:30:56.821Z,23.19
2018-09-22T09:33:28.524Z,23.32
2018-09-22T09:36:00.118Z,23.36
2018-09-22T09:38:32.131Z,23.33
2018-09-22T09:41:02.598Z,23.43
2018-09-22T09:43:33.293Z,23.50
2018-09-22T09:46:04.008Z,23.53
2018-09-22T09:48:34.669Z,23.51
2018-09-22T09:51:05.862Z,23.49
2018-09-22T09:53:36.198Z,23.58
2018-09-22T09:56:07.195Z,23.62
2018-09-22T09:58:38.273Z,23.72
2018-09-22T10:01:08.527Z,23.71
2018-09-22T10:03:39.050Z,23.73
2018-09-22T10:06:10.453Z,23.74
2018-09-22T10:08:41.239Z,23.82
2018-09-22T10:11:11.290Z,23.76
2018-09-22T10:13:42.794Z,23.76
2018-09-22T10:16:13.977Z,23.77
2018-09-22T10:18:44.205Z,23.78
2018-09-22T10:21:15.221Z,23.73
2018-09-22T10:23:47.288Z,23.75
2018-09-22T10:26:18.616Z,23.70
2018-09-22T10:28:49.765Z,23.76
2018-09-22T10:31:22.296Z,23.71
2018-09-22T10:33:54.288Z,23.75
2018-09-22T10:36:26.392Z,23.72
2018-09-22T10:38:56.874Z,23.78
2018-09-22T10:41:27.436Z,23.78
2018-09-22T10:43:58.988Z,23.79
2018-09-22T10:46:30.246Z,23.77
2018-09-22T10:49:01.359Z,23.75
2018-09-22T10:51:32.912Z,23.74
2018-09-22T10:54:03.654Z,23.82
2018-09-22T10:56:35.340Z,23.79
2018-09-22T10:59:06.841Z,23.90
2018-09-22T11:01:37.162Z,23.89
2018-09-22T11:04:09.911Z,23.94
2018-09-22T11:06:41.235Z,24.00
2018-09-22T11:09:11.698Z,24.01
2018-09-22T11:11:42.279Z,24.02
2018-09-22T11:14:15.433Z,23.98
2018-09-22T11:16:46.191Z,23.99
2018-09-22T11:19:16.643Z,23.98
2018-09-22T11:21:47.901Z,23.94
2018-09-22T11:24:19.346Z,23.94
2018-09-22T11:26:49.869Z,23.91
2018-09-22T11:29:20.863Z,23.93
2018-09-22T11:31:51.172Z,23.88
2018-09-22T11:34:21.352Z,23.86
2018-09-22T11:36:52.286Z,23.95
2018-09-22T11:39:23.338Z,23.96
2018-09-22T11:41:54.304Z,23.91
2018-09-22T11:44:26.182Z,23.88
2018-09-22T11:46:57.201Z,23.90
2018-09-22T11:49:32.721Z,23.91
2018-09-22T11:52:04.913Z,23.94
2018-09-22T11:54:35.456Z,24.02
2018-09-22T11:57:06.184Z,24.00
2018-09-22T11:59:38.514Z,24.02
2018-09-22T12:04:39.696Z,23.98
2018-09-22T12:07:11.104Z,24.03
2018-09-22T12:09:43.068Z,24.08
2018-09-22T12:12:13.551Z,24.09
2018-09-22T12:14:44.695Z,23.98
2018-09-22T12:17:20.016Z,23.98
2018-09-22T12:19:51.576Z,23.94
2018-09-22T12:22:27.917Z,23.95
2018-09-22T12:24:59.198Z,24.03
2018-09-22T12:27:30.417Z,24.08
2018-09-22T12:30:01.480Z,24.15
2018-09-22T12:32:32.282Z,24.15
2018-09-22T12:35:04.346Z,24.20
2018-09-22T12:37:35.187Z,24.23
2018-09-22T12:40:06.321Z,24.29
2018-09-22T12:42:37.138Z,24.32
2018-09-22T12:45:07.418Z,24.30
2018-09-22T12:47:38.451Z,24.31
2018-09-22T12:50:08.760Z,24.41
2018-09-22T12:52:39.181Z,24.44
2018-09-22T12:55:09.317Z,24.48
2018-09-22T12:57:40.153Z,24.39
2018-09-22T13:00:10.905Z,24.44
2018-09-22T13:02:41.197Z,24.42
2018-09-22T13:05:12.457Z,24.46
2018-09-22T13:07:44.016Z,24.51
2018-09-22T13:10:15.447Z,24.45
2018-09-22T13:12:46.921Z,24.54
2018-09-22T13:15:17.883Z,24.43
2018-09-22T13:17:48.324Z,24.43
2018-09-22T13:20:20.246Z,24.42
2018-09-22T13:22:51.569Z,24.45
2018-09-22T13:25:22.689Z,24.44
2018-09-22T13:27:54.626Z,24.51
2018-09-22T13:30:25.209Z,24.49
2018-09-22T13:32:56.408Z,24.51
2018-09-22T13:35:28.667Z,24.58
2018-09-22T13:38:00.475Z,24.61
2018-09-22T13:40:32.607Z,24.60
2018-09-22T13:43:04.017Z,24.63
2018-09-22T13:45:34.841Z,24.64
2018-09-22T13:48:06.884Z,24.61
2018-09-22T13:50:37.168Z,24.60
2018-09-22T13:53:09.081Z,24.48
2018-09-22T13:55:39.092Z,24.47
2018-09-22T13:58:09.477Z,24.51
2018-09-22T14:00:41.105Z,24.51
2018-09-22T14:03:12.244Z,24.56
2018-09-22T14:05:42.975Z,24.59
2018-09-22T14:08:13.285Z,24.64
2018-09-22T14:10:43.605Z,24.68
2018-09-22T14:13:13.939Z,24.63
2018-09-22T14:15:45.025Z,24.60
2018-09-22T14:18:18.499Z,24.62
2018-09-22T14:20:50.015Z,24.58
2018-09-22T14:23:20.502Z,24.68
2018-09-22T14:25:51.281Z,24.61
2018-09-22T14:28:21.529Z,24.65
2018-09-22T14:30:53.604Z,24.56
2018-09-22T14:33:24.790Z,24.51
2018-09-22T14:35:54.939Z,24.58
2018-09-22T14:38:25.056Z,24.56
2018-09-22T14:40:55.815Z,24.63
2018-09-22T14:43:26.241Z,24.57
2018-09-22T14:45:56.781Z,24.59
2018-09-22T14:48:26.947Z,24.57
2018-09-22T14:50:57.597Z,24.56
2018-09-22T14:53:29.635Z,24.61
2018-09-22T14:56:00.210Z,24.55
2018-09-22T14:58:31.693Z,24.60
2018-09-22T15:01:02.987Z,24.58
2018-09-22T15:03:34.063Z,24.63
2018-09-22T15:06:05.500Z,24.61
2018-09-22T15:08:38.236Z,24.64
2018-09-22T15:11:08.916Z,24.55
2018-09-22T15:13:40.508Z,24.52
2018-09-22T15:16:11.433Z,24.54
2018-09-22T15:18:41.781Z,24.64
2018-09-22T15:21:12.637Z,24.68
2018-09-22T15:23:43.335Z,24.67
2018-09-22T15:26:14.360Z,24.57
2018-09-22T15:28:46.092Z,24.48
2018-09-22T15:31:17.573Z,24.48
2018-09-22T15:33:49.599Z,24.55
2018-09-22T15:36:20.758Z,24.51
2018-09-22T15:38:52.112Z,24.56
2018-09-22T15:41:23.797Z,24.63
2018-09-22T15:43:55.890Z,24.63
2018-09-22T15:46:26.926Z,24.65
2018-09-22T15:48:58.042Z,24.70
2018-09-22T15:51:28.352Z,24.69
2018-09-22T15:53:58.686Z,24.72
2018-09-22T15:56:30.570Z,24.76
2018-09-22T15:59:01.652Z,24.68
2018-09-22T16:01:32.550Z,24.71
2018-09-22T16:04:03.250Z,24.59
2018-09-22T16:06:34.132Z,24.60
2018-09-22T16:09:06.992Z,24.65
2018-09-22T16:11:41.006Z,24.69
2018-09-22T16:14:11.319Z,24.67
2018-09-22T16:16:41.650Z,24.68
2018-09-22T16:19:12.709Z,24.62
2018-09-22T16:21:44.410Z,24.55
2018-09-22T16:24:15.386Z,24.59
2018-09-22T16:26:48.078Z,24.53
2018-09-22T16:29:18.799Z,24.57
2018-09-22T16:31:49.566Z,24.53
2018-09-22T16:34:20.014Z,24.59
2018-09-22T16:36:51.356Z,24.56
2018-09-22T16:39:22.456Z,24.70
2018-09-22T16:41:53.447Z,24.66
2018-09-22T16:44:25.140Z,24.69
2018-09-22T16:46:56.173Z,24.73
2018-09-22T16:49:26.477Z,24.72
2018-09-22T16:51:58.210Z,24.71
2018-09-22T16:54:30.313Z,24.77
2018-09-22T16:57:01.051Z,24.74
2018-09-22T16:59:31.773Z,24.69
2018-09-22T17:02:02.326Z,24.70
2018-09-22T17:04:33.177Z,24.73
2018-09-22T17:07:04.793Z,24.70
2018-09-22T17:09:35.832Z,24.72
2018-09-22T17:12:06.088Z,24.73
2018-09-22T17:14:38.044Z,24.77
2018-09-22T17:17:08.655Z,24.77
2018-09-22T17:19:39.652Z,24.77
2018-09-22T17:22:09.898Z,24.77
2018-09-22T17:24:39.951Z,24.79
2018-09-22T17:27:10.269Z,24.73
2018-09-22T17:29:41.457Z,24.74
2018-09-22T17:32:12.154Z,24.72
2018-09-22T17:34:42.983Z,24.69
2018-09-22T17:37:15.453Z,24.73
2018-09-22T17:39:47.147Z,24.78
2018-09-22T17:42:18.782Z,24.78
2018-09-22T17:44:49.271Z,24.81
2018-09-22T17:47:20.771Z,24.81
2018-09-22T17:49:56.224Z,24.85
2018-09-22T17:52:26.434Z,24.81
2018-09-22T17:54:57.130Z,24.81
2018-09-22T17:57:28.913Z,24.84
2018-09-22T17:59:59.044Z,24.84
2018-09-22T18:02:31.795Z,24.84
2018-09-22T18:05:02.911Z,24.85
2018-09-22T18:07:34.020Z,24.84
2018-09-22T18:10:06.279Z,24.85
2018-09-22T18:12:38.643Z,24.88
2018-09-22T18:15:09.524Z,24.88
2018-09-22T18:17:40.349Z,24.91
2018-09-22T18:20:12.572Z,24.88
2018-09-22T18:22:43.841Z,24.90
2018-09-22T18:25:14.513Z,24.91
2018-09-22T18:27:45.659Z,24.91
2018-09-22T18:30:16.114Z,24.91
2018-09-22T18:32:46.412Z,24.93
2018-09-22T18:35:18.392Z,24.94
2018-09-22T18:37:50.791Z,24.94
2018-09-22T18:40:21.283Z,24.96
2018-09-22T18:42:51.999Z,24.97
2018-09-22T18:45:22.643Z,24.98
2018-09-22T18:47:53.129Z,24.99
2018-09-22T18:50:23.815Z,24.97
2018-09-22T18:52:54.501Z,25.00
2018-09-22T18:55:25.507Z,25.01
2018-09-22T18:57:55.691Z,24.99
2018-09-22T19:00:26.950Z,25.00
2018-09-22T19:02:58.558Z,25.01
2018-09-22T19:05:28.637Z,25.00
2018-09-22T19:07:58.808Z,25.01
2018-09-22T19:10:29.836Z,25.01
2018-09-22T19:13:03.154Z,25.03
2018-09-22T19:15:39.568Z,25.04
2018-09-22T19:18:17.419Z,25.04
2018-09-22T19:20:54.172Z,25.03
2018-09-22T19:23:32.124Z,25.05
2018-09-22T19:26:07.820Z,25.03
2018-09-22T19:28:45.856Z,25.03
2018-09-22T19:31:20.817Z,25.03
2018-09-22T19:33:55.095Z,25.02
2018-09-22T19:36:29.272Z,25.02
2018-09-22T19:39:03.597Z,25.03
2018-09-22T19:41:39.956Z,25.02
2018-09-22T19:44:30.482Z,25.01
2018-09-22T19:47:09.222Z,25.01
2018-09-22T19:49:52.376Z,25.01
2018-09-22T19:52:58.883Z,25.00
2018-09-22T19:55:29.385Z,25.02
2018-09-22T19:57:59.970Z,25.01
2018-09-22T20:00:30.406Z,25.01
2018-09-22T20:03:01.447Z,25.01
2018-09-22T20:05:31.550Z,25.01
2018-09-22T20:08:02.193Z,25.02
2018-09-22T20:10:32.658Z,25.00
2018-09-22T20:13:03.129Z,25.01
2018-09-22T20:15:33.518Z,24.98
2018-09-22T20:18:03.752Z,24.96
2018-09-22T20:20:34.586Z,24.98
2018-09-22T20:23:05.087Z,25.00
2018-09-22T20:25:35.322Z,24.99
2018-09-22T20:28:05.684Z,25.03
2018-09-22T20:30:35.881Z,25.01
2018-09-22T20:33:06.306Z,24.96
2018-09-22T20:35:37.032Z,24.94
2018-09-22T20:38:07.627Z,24.96
2018-09-22T20:40:37.841Z,24.92
2018-09-22T20:43:08.105Z,24.95
2018-09-22T20:45:38.895Z,24.93
2018-09-22T20:48:09.333Z,24.89
2018-09-22T20:50:39.754Z,24.92
2018-09-22T20:53:10.597Z,24.94
2018-09-22T20:55:40.915Z,24.94
2018-09-22T20:58:11.469Z,24.99
2018-09-22T21:00:42.011Z,25.05
2018-09-22T21:03:12.739Z,25.14
2018-09-22T21:05:42.960Z,25.24
2018-09-22T21:08:13.248Z,25.33
2018-09-22T21:10:43.451Z,25.34
2018-09-22T21:13:14.003Z,25.39
2018-09-22T21:15:44.736Z,25.43
2018-09-22T21:18:14.980Z,25.50
2018-09-22T21:20:45.208Z,25.48
2018-09-22T21:23:15.962Z,25.53
2018-09-22T21:25:45.995Z,25.58
2018-09-22T21:28:16.386Z,25.52
2018-09-22T21:30:46.880Z,25.54
2018-09-22T21:33:17.300Z,25.54
2018-09-22T21:35:48.000Z,25.56
2018-09-22T21:38:18.137Z,25.57
2018-09-22T21:40:48.390Z,25.56
2018-09-22T21:43:18.763Z,25.58
2018-09-22T21:45:49.179Z,25.54
2018-09-22T21:48:19.615Z,25.52
2018-09-22T21:50:49.781Z,25.49
2018-09-22T21:53:20.023Z,25.43
2018-09-22T21:55:50.581Z,25.37
2018-09-22T21:58:20.826Z,25.35
2018-09-22T22:00:53.081Z,25.32
2018-09-22T22:03:23.940Z,25.31
2018-09-22T22:05:54.133Z,25.28
2018-09-22T22:08:24.097Z,25.24
2018-09-22T22:10:54.171Z,25.23
2018-09-22T22:13:24.374Z,25.21
2018-09-22T22:15:54.643Z,25.19
2018-09-22T22:18:24.943Z,25.16
2018-09-22T22:20:55.046Z,25.15
2018-09-22T22:23:25.164Z,25.10
2018-09-22T22:25:55.265Z,25.09
2018-09-22T22:28:25.314Z,25.08
2018-09-22T22:30:55.464Z,25.07
2018-09-22T22:33:25.632Z,25.04
2018-09-22T22:35:55.668Z,25.05
2018-09-22T22:38:25.708Z,25.04
2018-09-22T22:40:56.121Z,25.04
2018-09-22T22:43:26.732Z,25.02
2018-09-22T22:45:57.178Z,25.02
2018-09-22T22:48:27.774Z,24.96
2018-09-22T22:50:58.142Z,25.00
2018-09-22T22:53:28.640Z,24.99
2018-09-22T22:55:58.856Z,25.01
2018-09-22T22:58:29.195Z,24.98
2018-09-22T23:00:59.442Z,24.95
2018-09-22T23:03:29.984Z,24.95
2018-09-22T23:06:00.615Z,24.96
2018-09-22T23:08:30.870Z,24.96
2018-09-22T23:11:01.183Z,24.96
2018-09-22T23:13:31.434Z,24.96
2018-09-22T23:16:01.569Z,24.94
2018-09-22T23:18:31.775Z,24.93
2018-09-22T23:21:01.958Z,24.92
2018-09-22T23:23:32.338Z,24.91
2018-09-22T23:26:02.824Z,24.93
2018-09-22T23:28:32.986Z,24.90
2018-09-22T23:31:03.418Z,24.89
2018-09-22T23:33:33.550Z,24.88
2018-09-22T23:36:03.927Z,24.91
2018-09-22T23:41:36.889Z,24.89
2018-09-22T23:44:07.715Z,24.89
2018-09-22T23:49:16.308Z,24.89
2018-09-22T23:51:46.562Z,24.86
2018-09-22T23:54:16.520Z,24.87
2018-09-22T23:56:46.671Z,24.86
2018-09-22T23:59:16.799Z,24.88
